createdAt,value
2018-03-18T00:00:34.781Z,50.85
2018-03-18T00:03:03.158Z,54.88
2018-03-18T00:05:32.310Z,53.00
2018-03-18T00:08:00.679Z,52.65
2018-03-18T00:10:29.272Z,50.90
2018-03-18T00:12:57.653Z,60.60
2018-03-18T00:15:26.030Z,54.35
2018-03-18T00:17:54.481Z,53.15
2018-03-18T00:20:23.618Z,56.78
2018-03-18T00:22:52.046Z,55.65
2018-03-18T00:25:21.178Z,56.08
2018-03-18T00:27:49.865Z,63.70
2018-03-18T00:30:18.243Z,52.62
2018-03-18T00:32:46.621Z,54.90
2018-03-18T00:35:15.026Z,56.85
2018-03-18T00:37:43.397Z,47.17
2018-03-18T00:40:11.792Z,50.95
2018-03-18T00:42:40.158Z,59.90
2018-03-18T00:45:08.543Z,49.60
2018-03-18T00:47:36.964Z,51.15
2018-03-18T00:50:05.369Z,57.75
2018-03-18T00:52:33.761Z,48.20
2018-03-18T00:55:02.126Z,48.80
2018-03-18T00:57:30.813Z,49.03
2018-03-18T00:59:59.193Z,49.42
2018-03-18T01:02:27.570Z,56.50
2018-03-18T01:04:55.984Z,44.85
2018-03-18T01:07:24.358Z,44.10
2018-03-18T01:09:52.748Z,49.22
2018-03-18T01:12:21.114Z,51.37
2018-03-18T01:14:49.770Z,46.13
2018-03-18T01:17:19.495Z,50.08
2018-03-18T01:19:47.921Z,53.42
2018-03-18T01:22:27.214Z,51.28
2018-03-18T01:24:58.655Z,57.60
2018-03-18T01:27:35.275Z,46.47
2018-03-18T01:30:05.566Z,50.12
2018-03-18T01:32:36.409Z,48.92
2018-03-18T01:35:05.166Z,50.05
2018-03-18T01:37:33.551Z,44.97
2018-03-18T01:40:01.950Z,52.08
2018-03-18T01:42:30.335Z,54.65
2018-03-18T01:44:59.497Z,47.10
2018-03-18T01:47:27.937Z,53.15
2018-03-18T01:49:56.566Z,45.08
2018-03-18T01:52:24.937Z,41.37
2018-03-18T01:54:53.307Z,47.13
2018-03-18T01:57:21.730Z,43.30
2018-03-18T01:59:50.109Z,48.08
2018-03-18T02:02:18.599Z,51.28
2018-03-18T02:04:48.265Z,39.63
2018-03-18T02:07:17.187Z,45.53
2018-03-18T02:09:46.321Z,42.33
2018-03-18T02:12:14.694Z,49.97
2018-03-18T02:14:43.896Z,44.45
2018-03-18T02:17:13.030Z,50.58
2018-03-18T02:19:41.437Z,48.83
2018-03-18T02:22:09.893Z,59.20
2018-03-18T02:24:38.577Z,44.47
2018-03-18T02:27:06.966Z,52.42
2018-03-18T02:29:35.334Z,49.97
2018-03-18T02:32:03.815Z,45.70
2018-03-18T02:34:32.197Z,45.83
2018-03-18T02:37:00.713Z,49.53
2018-03-18T02:39:29.100Z,46.53
2018-03-18T02:41:58.291Z,49.67
2018-03-18T02:44:26.671Z,51.97
2018-03-18T02:46:55.046Z,46.85
2018-03-18T02:49:23.446Z,51.15
2018-03-18T02:51:52.583Z,45.60
2018-03-18T02:54:20.994Z,37.70
2018-03-18T02:56:50.878Z,44.13
2018-03-18T02:59:19.298Z,54.42
2018-03-18T03:01:47.675Z,48.87
2018-03-18T03:04:16.824Z,55.33
2018-03-18T03:06:45.230Z,46.28
2018-03-18T03:09:13.607Z,52.40
2018-03-18T03:11:42.012Z,42.35
2018-03-18T03:14:11.153Z,43.53
2018-03-18T03:16:39.741Z,47.00
2018-03-18T03:19:08.119Z,51.60
2018-03-18T03:21:36.493Z,52.45
2018-03-18T03:24:05.393Z,51.40
2018-03-18T03:26:34.306Z,53.97
2018-03-18T03:29:03.437Z,63.33
2018-03-18T03:31:33.093Z,53.55
2018-03-18T03:34:01.983Z,57.42
2018-03-18T03:36:30.961Z,50.83
2018-03-18T03:38:59.850Z,54.05
2018-03-18T03:41:28.834Z,55.45
2018-03-18T03:43:58.782Z,48.13
2018-03-18T03:46:27.695Z,52.50
2018-03-18T03:48:56.841Z,57.22
2018-03-18T03:51:26.136Z,50.97
2018-03-18T03:53:54.534Z,57.88
2018-03-18T03:56:22.915Z,47.05
2018-03-18T03:58:51.313Z,52.30
2018-03-18T04:01:19.694Z,54.63
2018-03-18T04:03:48.119Z,52.97
2018-03-18T04:06:16.506Z,55.58
2018-03-18T04:08:44.931Z,53.30
2018-03-18T04:11:13.312Z,57.22
2018-03-18T04:13:41.694Z,58.30
2018-03-18T04:16:10.095Z,57.85
2018-03-18T04:18:39.244Z,58.22
2018-03-18T04:21:07.646Z,47.40
2018-03-18T04:23:36.053Z,51.90
2018-03-18T04:26:05.397Z,45.25
2018-03-18T04:28:33.781Z,52.65
2018-03-18T04:31:02.161Z,49.08
2018-03-18T04:33:30.555Z,51.30
2018-03-18T04:35:58.946Z,46.03
2018-03-18T04:38:27.354Z,44.15
2018-03-18T04:40:56.494Z,41.13
2018-03-18T04:43:24.905Z,50.03
2018-03-18T04:45:53.288Z,49.30
2018-03-18T04:48:21.662Z,52.25
2018-03-18T04:50:50.062Z,53.47
2018-03-18T04:53:19.201Z,44.22
2018-03-18T04:55:47.593Z,40.12
2018-03-18T04:58:15.969Z,39.55
2018-03-18T05:00:44.388Z,47.42
2018-03-18T05:03:13.533Z,47.20
2018-03-18T05:05:41.926Z,40.38
2018-03-18T05:08:10.325Z,43.38
2018-03-18T05:10:38.706Z,37.00
2018-03-18T05:13:07.111Z,40.80
2018-03-18T05:15:35.486Z,39.15
2018-03-18T05:18:04.665Z,40.97
2018-03-18T05:20:33.814Z,43.80
2018-03-18T05:23:02.201Z,35.92
2018-03-18T05:25:30.603Z,40.92
2018-03-18T05:27:58.974Z,43.03
2018-03-18T05:30:27.383Z,35.22
2018-03-18T05:32:56.537Z,39.42
2018-03-18T05:35:25.111Z,35.38
2018-03-18T05:37:53.502Z,36.92
2018-03-18T05:40:21.888Z,39.88
2018-03-18T05:42:50.298Z,41.03
2018-03-18T05:45:19.444Z,40.60
2018-03-18T05:47:47.845Z,34.67
2018-03-18T05:50:16.229Z,34.13
2018-03-18T05:52:44.868Z,43.10
2018-03-18T05:55:13.241Z,37.42
2018-03-18T05:57:41.618Z,34.45
2018-03-18T06:00:10.024Z,25.80
2018-03-18T06:02:38.400Z,32.65
2018-03-18T06:05:06.802Z,37.20
2018-03-18T06:07:35.186Z,32.25
2018-03-18T06:10:03.760Z,36.40
2018-03-18T06:12:32.151Z,30.98
2018-03-18T06:15:01.328Z,32.25
2018-03-18T06:17:29.751Z,32.17
2018-03-18T06:19:58.901Z,36.15
2018-03-18T06:22:27.307Z,36.80
2018-03-18T06:24:55.700Z,31.80
2018-03-18T06:27:24.882Z,34.60
2018-03-18T06:29:53.258Z,34.08
2018-03-18T06:32:21.662Z,42.08
2018-03-18T06:34:50.829Z,34.58
2018-03-18T06:37:19.210Z,32.05
2018-03-18T06:39:47.646Z,26.20
2018-03-18T06:42:16.022Z,39.58
2018-03-18T06:44:44.427Z,32.10
2018-03-18T06:47:12.809Z,38.08
2018-03-18T06:49:48.450Z,40.65
2018-03-18T06:52:16.831Z,31.02
2018-03-18T06:54:45.213Z,31.05
2018-03-18T06:57:13.611Z,30.62
2018-03-18T06:59:41.997Z,27.27
2018-03-18T07:02:10.400Z,33.70
2018-03-18T07:04:38.778Z,28.55
2018-03-18T07:07:07.392Z,31.60
2018-03-18T07:09:35.789Z,32.53
2018-03-18T07:12:04.167Z,30.88
2018-03-18T07:14:32.639Z,36.03
2018-03-18T07:17:02.584Z,23.20
2018-03-18T07:19:30.992Z,32.30
2018-03-18T07:21:59.374Z,29.80
2018-03-18T07:24:27.878Z,25.92
2018-03-18T07:26:56.266Z,33.38
2018-03-18T07:29:24.652Z,34.38
2018-03-18T07:31:53.054Z,32.83
2018-03-18T07:34:21.429Z,31.20
2018-03-18T07:36:50.602Z,30.37
2018-03-18T07:39:19.022Z,32.13
2018-03-18T07:41:47.662Z,30.88
2018-03-18T07:44:16.039Z,35.15
2018-03-18T07:46:44.414Z,29.27
2018-03-18T07:49:12.820Z,39.17
2018-03-18T07:51:41.192Z,30.50
2018-03-18T07:54:09.718Z,33.38
2018-03-18T07:56:38.858Z,36.20
2018-03-18T07:59:07.428Z,34.38
2018-03-18T08:01:35.806Z,36.22
2018-03-18T08:04:04.197Z,33.47
2018-03-18T08:06:32.603Z,38.58
2018-03-18T08:09:00.979Z,39.50
2018-03-18T08:11:29.383Z,27.60
2018-03-18T08:13:58.583Z,34.15
2018-03-18T08:16:27.214Z,30.12
2018-03-18T08:18:55.594Z,32.72
2018-03-18T08:21:23.979Z,39.20
2018-03-18T08:23:52.377Z,33.67
2018-03-18T08:26:20.799Z,34.72
2018-03-18T08:28:49.955Z,32.20
2018-03-18T08:31:18.339Z,30.20
2018-03-18T08:33:47.107Z,31.75
2018-03-18T08:36:15.504Z,36.25
2018-03-18T08:38:43.883Z,34.03
2018-03-18T08:41:12.291Z,31.92
2018-03-18T08:43:41.441Z,32.70
2018-03-18T08:46:09.839Z,26.27
2018-03-18T08:48:38.219Z,32.92
2018-03-18T08:51:06.670Z,28.60
2018-03-18T08:53:35.046Z,47.50
2018-03-18T08:56:04.138Z,32.30
2018-03-18T08:58:32.570Z,28.90
2018-03-18T09:01:01.712Z,38.15
2018-03-18T09:03:30.111Z,38.15
2018-03-18T09:06:04.283Z,36.13
2018-03-18T09:08:39.003Z,30.70
2018-03-18T09:11:08.302Z,33.15
2018-03-18T09:13:36.734Z,33.42
2018-03-18T09:16:05.133Z,30.55
2018-03-18T09:18:34.396Z,30.27
2018-03-18T09:21:03.949Z,28.92
2018-03-18T09:23:32.707Z,33.65
2018-03-18T09:26:02.152Z,34.10
2018-03-18T09:28:30.975Z,28.23
2018-03-18T09:31:01.682Z,30.10
2018-03-18T09:33:31.790Z,35.08
2018-03-18T09:36:00.186Z,31.05
2018-03-18T09:38:31.602Z,29.23
2018-03-18T09:41:01.682Z,30.50
2018-03-18T09:43:31.922Z,29.35
2018-03-18T09:46:00.370Z,24.67
2018-03-18T09:48:31.616Z,31.17
2018-03-18T09:51:02.387Z,29.90
2018-03-18T09:53:33.945Z,28.70
2018-03-18T09:56:02.693Z,27.70
2018-03-18T09:58:31.094Z,34.72
2018-03-18T10:00:59.607Z,27.20
2018-03-18T10:03:28.778Z,29.10
2018-03-18T10:05:57.161Z,28.35
2018-03-18T10:08:25.659Z,27.60
2018-03-18T10:10:54.794Z,33.50
2018-03-18T10:13:23.190Z,26.20
2018-03-18T10:15:51.586Z,30.05
2018-03-18T10:18:19.972Z,30.02
2018-03-18T10:20:49.199Z,31.70
2018-03-18T10:23:18.337Z,26.80
2018-03-18T10:25:46.733Z,30.70
2018-03-18T10:28:15.155Z,26.00
2018-03-18T10:30:44.651Z,35.97
2018-03-18T10:33:13.782Z,29.25
2018-03-18T10:35:42.149Z,30.08
2018-03-18T10:38:10.591Z,28.10
2018-03-18T10:40:38.970Z,27.62
2018-03-18T10:43:07.367Z,34.15
2018-03-18T10:45:36.626Z,28.87
2018-03-18T10:48:05.051Z,25.75
2018-03-18T10:50:33.434Z,24.23
2018-03-18T10:53:02.036Z,26.60
2018-03-18T10:55:30.431Z,30.35
2018-03-18T10:57:58.924Z,26.00
2018-03-18T11:00:32.826Z,27.23
2018-03-18T11:03:01.509Z,30.00
2018-03-18T11:05:30.214Z,30.40
2018-03-18T11:07:58.986Z,28.33
2018-03-18T11:10:28.487Z,36.25
2018-03-18T11:12:57.681Z,28.75
2018-03-18T11:15:26.601Z,27.45
2018-03-18T11:17:55.999Z,27.48
2018-03-18T11:20:24.394Z,29.05
2018-03-18T11:22:53.823Z,31.00
2018-03-18T11:25:22.225Z,35.70
2018-03-18T11:27:51.227Z,28.83
2018-03-18T11:30:19.761Z,28.55
2018-03-18T11:32:48.903Z,32.15
2018-03-18T11:35:17.330Z,31.27
2018-03-18T11:37:46.541Z,27.45
2018-03-18T11:40:15.752Z,23.40
2018-03-18T11:42:44.148Z,27.13
2018-03-18T11:45:12.847Z,31.05
2018-03-18T11:47:41.363Z,27.87
2018-03-18T11:50:09.809Z,25.58
2018-03-18T11:52:38.246Z,29.60
2018-03-18T11:55:07.398Z,28.80
2018-03-18T11:57:35.833Z,31.08
2018-03-18T12:00:04.193Z,32.65
2018-03-18T12:02:33.577Z,28.85
2018-03-18T12:05:02.129Z,37.78
2018-03-18T12:07:30.511Z,32.17
2018-03-18T12:09:58.969Z,33.15
2018-03-18T12:12:28.261Z,31.83
2018-03-18T12:14:56.863Z,29.75
2018-03-18T12:17:25.238Z,31.92
2018-03-18T12:19:53.603Z,25.77
2018-03-18T12:22:21.995Z,30.83
2018-03-18T12:24:50.363Z,29.00
2018-03-18T12:27:18.755Z,28.98
2018-03-18T12:29:47.123Z,28.27
2018-03-18T12:32:15.717Z,29.85
2018-03-18T12:34:44.091Z,29.92
2018-03-18T12:37:12.537Z,32.15
2018-03-18T12:39:59.402Z,38.08
2018-03-18T12:42:45.574Z,32.70
2018-03-18T12:45:13.961Z,31.33
2018-03-18T12:47:42.342Z,31.27
2018-03-18T12:50:10.914Z,32.35
2018-03-18T12:52:39.285Z,34.30
2018-03-18T12:55:07.681Z,34.72
2018-03-18T12:57:36.078Z,37.10
2018-03-18T13:00:04.470Z,36.83
2018-03-18T13:02:33.100Z,27.52
2018-03-18T13:05:01.480Z,35.33
2018-03-18T13:07:29.906Z,31.20
2018-03-18T13:09:58.382Z,34.45
2018-03-18T13:12:26.747Z,27.98
2018-03-18T13:14:55.149Z,34.58
2018-03-18T13:17:23.517Z,32.70
2018-03-18T13:19:51.917Z,27.80
2018-03-18T13:22:20.315Z,36.35
2018-03-18T13:24:49.710Z,28.17
2018-03-18T13:27:18.355Z,32.58
2018-03-18T13:29:47.801Z,30.85
2018-03-18T13:32:16.961Z,27.65
2018-03-18T13:34:45.415Z,32.78
2018-03-18T13:37:13.846Z,29.55
2018-03-18T13:39:43.215Z,36.55
2018-03-18T13:42:11.881Z,30.37
2018-03-18T13:44:40.451Z,27.77
2018-03-18T13:47:08.822Z,30.05
2018-03-18T13:49:38.600Z,33.10
2018-03-18T13:52:07.036Z,34.00
2018-03-18T13:54:35.809Z,33.00
2018-03-18T13:57:04.266Z,31.27
2018-03-18T13:59:33.099Z,27.77
2018-03-18T14:02:01.631Z,35.05
2018-03-18T14:04:30.998Z,32.92
2018-03-18T14:07:00.692Z,32.33
2018-03-18T14:09:30.547Z,27.13
2018-03-18T14:12:00.111Z,30.62
2018-03-18T14:14:29.442Z,36.88
2018-03-18T14:16:58.002Z,31.60
2018-03-18T14:19:26.366Z,34.63
2018-03-18T14:21:54.985Z,39.90
2018-03-18T14:24:24.153Z,28.55
2018-03-18T14:26:52.550Z,29.30
2018-03-18T14:29:21.205Z,33.08
2018-03-18T14:31:49.595Z,34.15
2018-03-18T14:34:18.013Z,37.65
2018-03-18T14:36:46.381Z,42.00
2018-03-18T14:39:14.788Z,33.70
2018-03-18T14:41:43.953Z,34.75
2018-03-18T14:44:12.391Z,34.05
2018-03-18T14:46:40.788Z,35.95
2018-03-18T14:49:09.156Z,34.70
2018-03-18T14:51:38.060Z,29.83
2018-03-18T14:54:06.456Z,30.42
2018-03-18T14:56:35.228Z,33.38
2018-03-18T14:59:03.673Z,30.45
2018-03-18T15:01:32.130Z,32.65
2018-03-18T15:04:00.486Z,31.10
2018-03-18T15:06:28.850Z,28.33
2018-03-18T15:08:57.577Z,28.38
2018-03-18T15:11:26.735Z,35.03
2018-03-18T15:13:55.120Z,30.60
2018-03-18T15:16:23.515Z,47.60
2018-03-18T15:18:51.886Z,32.35
2018-03-18T15:21:20.389Z,30.45
2018-03-18T15:23:49.609Z,30.92
2018-03-18T15:26:18.214Z,32.78
2018-03-18T15:28:46.591Z,40.42
2018-03-18T15:31:14.970Z,28.95
2018-03-18T15:33:43.374Z,34.95
2018-03-18T15:36:11.750Z,37.83
2018-03-18T15:38:40.153Z,35.90
2018-03-18T15:41:09.294Z,32.05
2018-03-18T15:43:37.716Z,36.33
2018-03-18T15:46:06.112Z,32.80
2018-03-18T15:48:34.491Z,33.90
2018-03-18T15:51:03.642Z,32.65
2018-03-18T15:53:32.010Z,26.12
2018-03-18T15:56:00.706Z,35.28
2018-03-18T15:58:29.134Z,29.55
2018-03-18T16:00:58.309Z,32.60
2018-03-18T16:03:26.711Z,34.10
2018-03-18T16:05:55.868Z,33.90
2018-03-18T16:08:24.450Z,29.20
2018-03-18T16:10:53.173Z,31.87
2018-03-18T16:13:23.046Z,28.58
2018-03-18T16:15:52.782Z,28.60
2018-03-18T16:18:21.995Z,33.00
2018-03-18T16:20:51.167Z,29.45
2018-03-18T16:23:19.628Z,33.58
2018-03-18T16:25:48.037Z,30.55
2018-03-18T16:28:16.402Z,26.98
2018-03-18T16:31:02.623Z,31.90
2018-03-18T16:33:31.766Z,33.58
2018-03-18T16:36:00.162Z,35.13
2018-03-18T16:38:28.534Z,30.90
2018-03-18T16:40:57.145Z,34.20
2018-03-18T16:43:25.568Z,30.27
2018-03-18T16:45:53.945Z,30.73
2018-03-18T16:48:22.345Z,48.28
2018-03-18T16:50:50.734Z,34.03
2018-03-18T16:53:19.190Z,32.35
2018-03-18T16:55:47.645Z,34.72
2018-03-18T16:58:16.177Z,28.08
2018-03-18T17:00:44.546Z,31.60
2018-03-18T17:03:12.923Z,30.58
2018-03-18T17:05:42.353Z,39.67
2018-03-18T17:08:10.731Z,36.45
2018-03-18T17:10:39.153Z,29.00
2018-03-18T17:13:08.291Z,34.65
2018-03-18T17:15:37.077Z,33.53
2018-03-18T17:18:05.469Z,42.00
2018-03-18T17:20:33.852Z,30.98
2018-03-18T17:23:02.278Z,30.25
2018-03-18T17:25:30.830Z,28.80
2018-03-18T17:27:59.273Z,23.27
2018-03-18T17:30:29.095Z,40.60
2018-03-18T17:32:57.766Z,40.78
2018-03-18T17:35:27.175Z,26.85
2018-03-18T17:37:55.596Z,31.25
2018-03-18T17:40:24.293Z,29.85
2018-03-18T17:42:53.438Z,33.35
2018-03-18T17:45:40.045Z,27.95
2018-03-18T17:48:26.721Z,33.95
2018-03-18T17:51:13.581Z,32.00
2018-03-18T17:54:00.494Z,28.60
2018-03-18T17:56:37.722Z,28.87
2018-03-18T17:59:07.065Z,38.83
2018-03-18T18:01:35.619Z,25.27
2018-03-18T18:04:04.030Z,34.33
2018-03-18T18:06:32.531Z,28.95
2018-03-18T18:09:03.422Z,34.78
2018-03-18T18:11:32.025Z,28.75
2018-03-18T18:14:01.569Z,32.40
2018-03-18T18:16:30.227Z,24.92
2018-03-18T18:18:59.420Z,32.58
2018-03-18T18:21:28.247Z,30.52
2018-03-18T18:23:57.530Z,33.97
2018-03-18T18:26:26.195Z,40.00
2018-03-18T18:28:55.087Z,33.05
2018-03-18T18:31:23.491Z,32.00
2018-03-18T18:33:51.974Z,30.33
2018-03-18T18:36:20.428Z,32.53
2018-03-18T18:38:48.793Z,41.45
2018-03-18T18:41:17.548Z,44.35
2018-03-18T18:43:46.094Z,28.75
2018-03-18T18:46:16.251Z,30.35
2018-03-18T18:48:45.112Z,33.65
2018-03-18T18:51:14.785Z,29.87
2018-03-18T18:53:43.263Z,31.83
2018-03-18T18:56:12.179Z,39.00
2018-03-18T18:58:41.966Z,36.60
2018-03-18T19:01:11.755Z,27.98
2018-03-18T19:03:40.648Z,34.60
2018-03-18T19:06:09.142Z,30.62
2018-03-18T19:08:38.245Z,34.58
2018-03-18T19:11:07.348Z,35.13
2018-03-18T19:13:37.591Z,33.65
2018-03-18T19:16:07.292Z,31.42
2018-03-18T19:18:37.092Z,26.23
2018-03-18T19:21:06.447Z,33.40
2018-03-18T19:23:35.582Z,35.78
2018-03-18T19:26:04.634Z,37.95
2018-03-18T19:28:33.215Z,32.28
2018-03-18T19:31:01.677Z,31.55
2018-03-18T19:33:30.707Z,30.60
2018-03-18T19:35:59.437Z,30.95
2018-03-18T19:38:27.823Z,28.87
2018-03-18T19:40:56.475Z,41.97
2018-03-18T19:43:24.882Z,32.05
2018-03-18T19:45:53.445Z,30.08
2018-03-18T19:48:21.867Z,35.38
2018-03-18T19:50:51.517Z,40.80
2018-03-18T19:53:21.076Z,29.85
2018-03-18T19:55:49.490Z,32.25
2018-03-18T19:58:17.870Z,37.85
2018-03-18T20:00:47.431Z,32.63
2018-03-18T20:03:15.818Z,31.87
2018-03-18T20:05:44.982Z,34.78
2018-03-18T20:08:13.419Z,35.63
2018-03-18T20:10:42.710Z,28.27
2018-03-18T20:13:11.950Z,34.00
2018-03-18T20:15:40.546Z,35.60
2018-03-18T20:18:08.921Z,31.58
2018-03-18T20:20:37.293Z,30.67
2018-03-18T20:23:05.701Z,29.12
2018-03-18T20:25:35.791Z,32.20
2018-03-18T20:28:05.295Z,36.50
2018-03-18T20:30:33.889Z,29.52
2018-03-18T20:33:02.666Z,33.65
2018-03-18T20:35:31.804Z,32.88
2018-03-18T20:38:01.493Z,36.10
2018-03-18T20:40:30.160Z,40.45
2018-03-18T20:42:59.563Z,36.42
2018-03-18T20:45:28.246Z,35.33
2018-03-18T20:47:56.658Z,33.38
2018-03-18T20:50:26.009Z,34.13
2018-03-18T20:52:54.459Z,27.42
2018-03-18T20:55:26.329Z,33.35
2018-03-18T20:57:54.768Z,33.40
2018-03-18T21:00:23.569Z,31.77
2018-03-18T21:02:53.654Z,29.48
2018-03-18T21:05:22.838Z,33.30
2018-03-18T21:07:51.906Z,30.50
2018-03-18T21:10:21.305Z,29.83
2018-03-18T21:12:50.094Z,41.70
2018-03-18T21:15:18.888Z,34.80
2018-03-18T21:17:47.615Z,32.28
2018-03-18T21:20:16.175Z,35.22
2018-03-18T21:22:44.562Z,38.58
2018-03-18T21:25:13.569Z,29.67
2018-03-18T21:27:42.926Z,33.53
2018-03-18T21:30:11.449Z,33.15
2018-03-18T21:32:41.159Z,39.97
2018-03-18T21:35:10.052Z,32.03
2018-03-18T21:37:39.142Z,31.48
2018-03-18T21:40:08.239Z,28.20
2018-03-18T21:42:37.981Z,39.15
2018-03-18T21:45:06.490Z,40.35
2018-03-18T21:47:35.013Z,44.55
2018-03-18T21:50:03.871Z,40.38
2018-03-18T21:52:32.718Z,31.52
2018-03-18T21:55:02.340Z,32.00
2018-03-18T21:57:31.530Z,35.28
2018-03-18T21:59:59.975Z,38.50
2018-03-18T22:02:28.533Z,40.30
2018-03-18T22:04:57.387Z,34.47
2018-03-18T22:07:26.772Z,32.17
2018-03-18T22:09:56.081Z,41.70
2018-03-18T22:12:24.692Z,40.12
2018-03-18T22:14:53.846Z,33.65
2018-03-18T22:17:22.255Z,36.60
2018-03-18T22:19:51.439Z,31.35
2018-03-18T22:22:19.838Z,31.90
2018-03-18T22:24:49.441Z,30.75
2018-03-18T22:27:18.675Z,48.03
2018-03-18T22:29:47.139Z,27.80
2018-03-18T22:32:15.574Z,28.45
2018-03-18T22:34:44.410Z,44.67
2018-03-18T22:37:12.795Z,35.17
2018-03-18T22:39:41.220Z,40.10
2018-03-18T22:42:10.067Z,36.45
2018-03-18T22:44:39.236Z,36.90
2018-03-18T22:47:08.699Z,32.13
2018-03-18T22:49:37.489Z,35.10
2018-03-18T22:52:05.874Z,37.60
2018-03-18T22:54:34.283Z,38.90
2018-03-18T22:57:03.433Z,39.00
2018-03-18T22:59:31.808Z,42.05
2018-03-18T23:02:00.214Z,37.33
2018-03-18T23:04:28.598Z,31.83
2018-03-18T23:06:56.978Z,31.45
2018-03-18T23:09:25.407Z,45.33
2018-03-18T23:11:53.785Z,37.25
2018-03-18T23:14:22.167Z,34.50
2018-03-18T23:16:50.578Z,37.65
2018-03-18T23:19:18.966Z,40.42
2018-03-18T23:21:47.346Z,39.95
2018-03-18T23:24:15.753Z,34.33
2018-03-18T23:26:44.896Z,38.63
2018-03-18T23:29:13.313Z,45.30
2018-03-18T23:31:41.729Z,36.42
2018-03-18T23:34:10.111Z,36.17
2018-03-18T23:36:38.496Z,32.70
2018-03-18T23:39:06.903Z,41.50
2018-03-18T23:41:35.295Z,39.58
2018-03-18T23:44:03.674Z,31.08
2018-03-18T23:46:32.083Z,37.03
2018-03-18T23:49:01.234Z,38.28
2018-03-18T23:51:29.613Z,44.25
2018-03-18T23:53:58.035Z,38.03
2018-03-18T23:56:26.413Z,38.50
2018-03-18T23:58:55.566Z,40.12
